createdAt,value
2019-01-06T00:01:48.129Z,16.90
2019-01-06T00:04:35.487Z,18.23
2019-01-06T00:07:23.597Z,17.43
2019-01-06T00:10:06.088Z,14.97
2019-01-06T00:12:56.988Z,13.27
2019-01-06T00:15:35.725Z,15.10
2019-01-06T00:18:38.622Z,14.27
2019-01-06T00:21:42.746Z,15.47
2019-01-06T00:24:29.324Z,16.53
2019-01-06T00:27:24.831Z,16.67
2019-01-06T00:30:16.561Z,15.87
2019-01-06T00:33:02.959Z,16.67
2019-01-06T00:36:01.031Z,15.53
2019-01-06T00:38:53.478Z,16.03
2019-01-06T00:41:40.576Z,14.67
2019-01-06T00:44:38.585Z,16.37
2019-01-06T00:47:28.152Z,14.73
2019-01-06T00:50:34.640Z,14.60
2019-01-06T00:53:34.154Z,15.77
2019-01-06T00:56:20.241Z,13.87
2019-01-06T00:59:10.866Z,14.33
2019-01-06T01:01:57.216Z,14.20
2019-01-06T01:04:45.115Z,14.70
2019-01-06T01:07:31.941Z,12.40
2019-01-06T01:13:52.636Z,11.93
2019-01-06T01:16:41.927Z,12.83
2019-01-06T01:19:38.859Z,11.50
2019-01-06T01:22:38.768Z,12.20
2019-01-06T01:25:25.303Z,11.10
2019-01-06T01:28:17.670Z,9.90
2019-01-06T01:31:13.717Z,10.97
2019-01-06T01:34:01.327Z,12.20
2019-01-06T01:36:45.923Z,9.70
2019-01-06T01:39:36.823Z,10.53
2019-01-06T01:42:27.603Z,13.30
2019-01-06T01:45:15.521Z,13.80
2019-01-06T01:48:01.612Z,9.37
2019-01-06T01:50:41.837Z,11.27
2019-01-06T01:53:23.640Z,10.13
2019-01-06T01:56:17.575Z,10.47
2019-01-06T01:59:05.464Z,12.63
2019-01-06T02:02:06.202Z,11.37
2019-01-06T02:04:56.964Z,11.00
2019-01-06T02:08:02.820Z,12.00
2019-01-06T02:10:46.700Z,11.70
2019-01-06T02:13:52.564Z,11.43
2019-01-06T02:16:59.717Z,13.23
2019-01-06T02:19:46.230Z,12.43
2019-01-06T02:22:32.564Z,12.10
2019-01-06T02:25:18.914Z,12.73
2019-01-06T02:28:05.406Z,11.47
2019-01-06T02:30:52.581Z,13.33
2019-01-06T02:33:41.035Z,10.27
2019-01-06T02:36:31.918Z,10.67
2019-01-06T02:39:24.712Z,15.20
2019-01-06T02:42:09.988Z,15.10
2019-01-06T02:45:06.697Z,15.40
2019-01-06T02:48:03.955Z,15.20
2019-01-06T02:50:50.587Z,14.77
2019-01-06T02:53:37.432Z,15.47
2019-01-06T02:56:25.974Z,15.73
2019-01-06T02:59:12.696Z,12.90
2019-01-06T03:02:14.325Z,12.70
2019-01-06T03:05:10.904Z,13.20
2019-01-06T03:07:57.289Z,14.23
2019-01-06T03:10:49.961Z,13.50
2019-01-06T03:13:33.294Z,14.00
2019-01-06T03:16:21.267Z,17.57
2019-01-06T03:19:24.117Z,16.30
2019-01-06T03:22:10.689Z,17.10
2019-01-06T03:24:57.234Z,14.73
2019-01-06T03:28:00.044Z,15.80
2019-01-06T03:30:46.584Z,18.17
2019-01-06T03:33:26.743Z,17.53
2019-01-06T03:36:10.771Z,16.70
2019-01-06T03:38:57.195Z,15.23
2019-01-06T03:41:51.875Z,14.10
2019-01-06T03:44:38.566Z,19.03
2019-01-06T03:47:35.677Z,19.63
2019-01-06T03:50:32.367Z,17.07
2019-01-06T03:53:27.672Z,17.73
2019-01-06T03:56:18.425Z,18.03
2019-01-06T03:59:03.131Z,16.00
2019-01-06T04:01:49.800Z,16.60
2019-01-06T04:04:46.755Z,18.80
2019-01-06T04:07:34.367Z,19.00
2019-01-06T04:10:34.431Z,18.47
2019-01-06T04:13:24.846Z,17.03
2019-01-06T04:16:12.373Z,18.10
2019-01-06T04:18:50.980Z,18.90
2019-01-06T04:21:37.995Z,16.60
2019-01-06T04:24:23.477Z,16.23
2019-01-06T04:27:14.537Z,22.27
2019-01-06T04:30:16.406Z,16.97
2019-01-06T04:33:00.667Z,19.93
2019-01-06T04:35:44.192Z,19.43
2019-01-06T04:38:30.471Z,18.50
2019-01-06T04:41:17.018Z,17.43
2019-01-06T04:44:03.808Z,18.07
2019-01-06T04:46:54.789Z,17.23
2019-01-06T04:49:43.453Z,16.80
2019-01-06T04:52:32.705Z,17.50
2019-01-06T04:55:28.167Z,17.43
2019-01-06T04:58:16.306Z,14.13
2019-01-06T05:01:00.586Z,21.37
2019-01-06T05:03:52.441Z,18.33
2019-01-06T05:06:45.546Z,17.07
2019-01-06T05:09:51.990Z,18.43
2019-01-06T05:12:52.873Z,15.87
2019-01-06T05:15:44.629Z,16.47
2019-01-06T05:18:33.575Z,16.10
2019-01-06T05:21:21.560Z,18.90
2019-01-06T05:24:08.386Z,18.67
2019-01-06T05:26:59.029Z,17.40
2019-01-06T05:29:49.720Z,17.10
2019-01-06T05:32:30.533Z,18.57
2019-01-06T05:35:18.437Z,15.53
2019-01-06T05:38:12.479Z,16.90
2019-01-06T05:41:05.247Z,14.83
2019-01-06T05:43:44.945Z,15.37
2019-01-06T05:46:33.789Z,16.43
2019-01-06T05:49:20.366Z,14.90
2019-01-06T05:52:13.217Z,16.93
2019-01-06T05:55:11.778Z,14.93
2019-01-06T05:58:02.795Z,17.53
2019-01-06T06:00:49.409Z,19.43
2019-01-06T06:03:35.307Z,16.83
2019-01-06T06:06:14.414Z,16.90
2019-01-06T06:09:09.285Z,16.67
2019-01-06T06:12:09.426Z,17.33
2019-01-06T06:14:55.744Z,20.23
2019-01-06T06:17:42.325Z,16.67
2019-01-06T06:20:41.775Z,18.63
2019-01-06T06:23:36.220Z,18.13
2019-01-06T06:26:26.901Z,16.17
2019-01-06T06:29:19.617Z,16.73
2019-01-06T06:32:10.303Z,16.17
2019-01-06T06:34:58.101Z,17.83
2019-01-06T06:37:39.693Z,16.80
2019-01-06T06:40:27.940Z,15.63
2019-01-06T06:43:15.723Z,15.67
2019-01-06T06:46:06.447Z,19.63
2019-01-06T06:48:47.363Z,16.17
2019-01-06T06:51:30.543Z,18.10
2019-01-06T06:54:30.414Z,18.07
2019-01-06T06:57:52.543Z,18.10
2019-01-06T07:00:53.009Z,18.93
2019-01-06T07:03:44.243Z,17.70
2019-01-06T07:06:42.675Z,19.30
2019-01-06T07:09:31.576Z,23.90
2019-01-06T07:12:22.533Z,21.50
2019-01-06T07:15:22.808Z,20.73
2019-01-06T07:18:10.839Z,22.33
2019-01-06T07:21:02.514Z,23.93
2019-01-06T07:23:51.039Z,22.33
2019-01-06T07:26:53.865Z,22.70
2019-01-06T07:29:53.948Z,25.93
2019-01-06T07:32:52.321Z,20.13
2019-01-06T07:35:34.156Z,25.03
2019-01-06T07:38:20.359Z,27.80
2019-01-06T07:41:09.487Z,27.40
2019-01-06T07:44:00.219Z,26.27
2019-01-06T07:46:50.922Z,30.13
2019-01-06T07:49:32.862Z,27.73
2019-01-06T07:52:37.369Z,34.90
2019-01-06T07:55:19.890Z,32.20
2019-01-06T07:58:17.748Z,31.77
2019-01-06T08:01:04.307Z,34.07
2019-01-06T08:04:09.244Z,36.57
2019-01-06T08:07:00.004Z,37.87
2019-01-06T08:09:46.073Z,38.43
2019-01-06T08:12:36.458Z,34.00
2019-01-06T08:15:25.163Z,36.20
2019-01-06T08:18:29.870Z,34.70
2019-01-06T08:21:16.194Z,32.83
2019-01-06T08:24:03.796Z,35.40
2019-01-06T08:26:49.104Z,34.83
2019-01-06T08:29:37.220Z,31.23
2019-01-06T08:32:24.642Z,33.73
2019-01-06T08:35:11.103Z,33.97
2019-01-06T08:38:11.370Z,36.33
2019-01-06T08:41:02.468Z,31.13
2019-01-06T08:43:46.541Z,31.73
2019-01-06T08:46:33.027Z,30.00
2019-01-06T08:49:21.215Z,30.73
2019-01-06T08:52:02.145Z,28.20
2019-01-06T08:54:51.139Z,34.10
2019-01-06T08:57:43.018Z,28.97
2019-01-06T09:00:34.742Z,32.40
2019-01-06T09:03:18.322Z,31.13
2019-01-06T09:05:59.504Z,27.37
2019-01-06T09:08:47.519Z,29.53
2019-01-06T09:11:36.907Z,31.80
2019-01-06T09:14:28.963Z,30.00
2019-01-06T09:17:15.394Z,33.87
2019-01-06T09:20:02.161Z,29.27
2019-01-06T09:22:48.974Z,31.30
2019-01-06T09:25:40.863Z,29.50
2019-01-06T09:28:40.509Z,29.37
2019-01-06T09:31:43.988Z,30.40
2019-01-06T09:34:31.927Z,29.63
2019-01-06T09:37:31.988Z,29.43
2019-01-06T09:40:27.356Z,30.00
2019-01-06T09:43:14.071Z,30.43
2019-01-06T09:46:04.120Z,31.50
2019-01-06T09:48:52.008Z,32.47
2019-01-06T09:51:52.040Z,34.23
2019-01-06T09:54:38.953Z,28.17
2019-01-06T09:57:32.957Z,24.97
2019-01-06T10:00:25.519Z,29.93
2019-01-06T10:03:09.926Z,21.30
2019-01-06T10:06:10.281Z,22.00
2019-01-06T10:08:56.942Z,23.37
2019-01-06T10:11:38.969Z,21.60
2019-01-06T10:14:25.514Z,19.43
2019-01-06T10:17:28.659Z,17.57
2019-01-06T10:20:15.195Z,12.20
2019-01-06T10:23:12.240Z,12.87
2019-01-06T10:26:02.822Z,10.50
2019-01-06T10:28:53.723Z,10.00
2019-01-06T10:31:42.418Z,7.23
2019-01-06T10:34:33.463Z,8.40
2019-01-06T10:37:19.896Z,7.03
2019-01-06T10:40:16.080Z,7.40
2019-01-06T10:43:19.618Z,9.73
2019-01-06T10:46:26.226Z,7.93
2019-01-06T10:49:30.483Z,6.73
2019-01-06T10:52:26.887Z,6.60
2019-01-06T10:55:28.408Z,8.73
2019-01-06T10:58:21.995Z,7.53
2019-01-06T11:01:08.334Z,9.43
2019-01-06T11:03:55.221Z,7.63
2019-01-06T11:06:48.969Z,6.47
2019-01-06T11:09:34.301Z,7.43
2019-01-06T11:12:21.017Z,6.37
2019-01-06T11:15:11.563Z,6.73
2019-01-06T11:17:57.951Z,8.97
2019-01-06T11:20:44.516Z,8.57
2019-01-06T11:23:30.941Z,8.80
2019-01-06T11:26:22.804Z,9.10
2019-01-06T11:29:09.549Z,8.40
2019-01-06T11:32:03.571Z,8.83
2019-01-06T11:34:50.155Z,10.23
2019-01-06T11:37:36.693Z,9.87
2019-01-06T11:40:23.262Z,9.63
2019-01-06T11:46:13.516Z,12.00
2019-01-06T11:49:04.285Z,9.43
2019-01-06T11:51:55.341Z,10.43
2019-01-06T11:54:52.529Z,11.97
2019-01-06T11:57:52.295Z,10.10
2019-01-06T12:00:38.663Z,10.03
2019-01-06T12:03:29.786Z,11.80
2019-01-06T12:06:17.326Z,12.40
2019-01-06T12:09:08.425Z,10.93
2019-01-06T12:11:57.497Z,12.60
2019-01-06T12:14:45.438Z,11.47
2019-01-06T12:17:37.608Z,12.23
2019-01-06T12:20:37.818Z,12.47
2019-01-06T12:23:33.576Z,13.67
2019-01-06T12:26:20.250Z,13.03
2019-01-06T12:29:11.298Z,14.47
2019-01-06T12:31:55.559Z,15.40
2019-01-06T12:34:42.170Z,20.37
2019-01-06T12:37:28.495Z,15.70
2019-01-06T12:40:16.329Z,15.77
2019-01-06T12:43:09.486Z,15.40
2019-01-06T12:45:57.475Z,15.30
2019-01-06T12:48:43.885Z,15.50
2019-01-06T12:51:27.784Z,16.00
2019-01-06T12:54:22.939Z,14.90
2019-01-06T12:57:07.714Z,16.73
2019-01-06T12:59:55.675Z,19.40
2019-01-06T13:02:41.526Z,13.10
2019-01-06T13:05:28.325Z,15.57
2019-01-06T13:08:14.699Z,16.30
2019-01-06T13:11:01.141Z,13.37
2019-01-06T13:14:02.393Z,13.03
2019-01-06T13:16:43.915Z,14.23
2019-01-06T13:19:32.181Z,15.50
2019-01-06T13:22:18.497Z,16.93
2019-01-06T13:25:15.641Z,15.50
2019-01-06T13:28:15.057Z,16.10
2019-01-06T13:31:01.674Z,18.70
2019-01-06T13:33:58.696Z,15.23
2019-01-06T13:36:52.474Z,13.80
2019-01-06T13:39:52.642Z,15.50
2019-01-06T13:42:47.456Z,14.43
2019-01-06T13:45:47.693Z,12.33
2019-01-06T13:48:32.051Z,14.47
2019-01-06T13:51:26.164Z,9.80
2019-01-06T13:54:32.637Z,9.97
2019-01-06T13:57:19.378Z,10.90
2019-01-06T14:00:06.118Z,9.83
2019-01-06T14:02:52.724Z,10.23
2019-01-06T14:05:54.149Z,11.37
2019-01-06T14:08:43.953Z,11.53
2019-01-06T14:11:33.896Z,10.77
2019-01-06T14:14:21.997Z,11.90
2019-01-06T14:17:21.092Z,12.90
2019-01-06T14:20:06.806Z,14.13
2019-01-06T14:23:05.613Z,12.83
2019-01-06T14:25:53.234Z,14.07
2019-01-06T14:28:44.266Z,14.50
2019-01-06T14:31:32.182Z,14.57
2019-01-06T14:34:19.096Z,15.13
2019-01-06T14:37:07.051Z,17.00
2019-01-06T14:39:58.348Z,17.37
2019-01-06T14:42:55.584Z,19.47
2019-01-06T14:45:42.895Z,18.17
2019-01-06T14:48:36.981Z,20.73
2019-01-06T14:51:24.135Z,20.00
2019-01-06T14:54:26.939Z,16.60
2019-01-06T14:57:27.378Z,16.93
2019-01-06T15:00:14.121Z,18.77
2019-01-06T15:03:00.587Z,21.87
2019-01-06T15:05:49.675Z,20.77
2019-01-06T15:08:34.632Z,18.37
2019-01-06T15:11:28.664Z,19.00
2019-01-06T15:14:15.335Z,17.17
2019-01-06T15:17:01.521Z,16.73
2019-01-06T15:19:49.393Z,13.73
2019-01-06T15:22:36.239Z,14.23
2019-01-06T15:25:23.205Z,14.60
2019-01-06T15:28:11.491Z,13.63
2019-01-06T15:30:59.640Z,13.90
2019-01-06T15:34:00.139Z,13.83
2019-01-06T15:36:57.744Z,12.50
2019-01-06T15:39:44.551Z,11.87
2019-01-06T15:42:33.186Z,16.00
2019-01-06T15:45:21.728Z,13.13
2019-01-06T15:48:08.671Z,14.23
2019-01-06T15:51:07.805Z,15.87
2019-01-06T15:53:59.973Z,13.03
2019-01-06T15:56:43.270Z,11.97
2019-01-06T15:59:31.849Z,12.43
2019-01-06T16:02:19.263Z,11.90
2019-01-06T16:05:07.961Z,12.53
2019-01-06T16:07:58.624Z,11.97
2019-01-06T16:13:54.979Z,11.83
2019-01-06T16:16:49.369Z,12.23
2019-01-06T16:19:43.877Z,15.03
2019-01-06T16:22:32.493Z,16.67
2019-01-06T16:25:22.124Z,15.63
2019-01-06T16:28:16.599Z,12.80
2019-01-06T16:31:08.499Z,20.53
2019-01-06T16:34:00.698Z,13.07
2019-01-06T16:36:47.666Z,16.53
2019-01-06T16:39:35.576Z,12.93
2019-01-06T16:42:23.651Z,13.50
2019-01-06T16:45:10.738Z,13.47
2019-01-06T16:48:09.949Z,13.57
2019-01-06T16:50:50.361Z,13.23
2019-01-06T16:53:41.134Z,12.17
2019-01-06T16:56:27.611Z,10.23
2019-01-06T16:59:16.735Z,11.63
2019-01-06T17:02:25.256Z,10.10
2019-01-06T17:05:06.884Z,18.83
2019-01-06T17:07:53.453Z,15.47
2019-01-06T17:10:52.422Z,12.30
2019-01-06T17:13:54.877Z,15.47
2019-01-06T17:16:46.463Z,12.23
2019-01-06T17:19:52.775Z,8.90
2019-01-06T17:22:49.738Z,11.80
2019-01-06T17:25:36.215Z,11.87
2019-01-06T17:28:22.605Z,10.63
2019-01-06T17:31:16.720Z,14.73
2019-01-06T17:34:04.794Z,14.03
2019-01-06T17:37:00.089Z,14.00
2019-01-06T17:39:38.537Z,18.43
2019-01-06T17:42:22.489Z,11.73
2019-01-06T17:45:09.002Z,18.93
2019-01-06T17:48:15.347Z,17.53
2019-01-06T17:51:03.679Z,19.23
2019-01-06T17:53:55.258Z,12.93
2019-01-06T17:56:46.880Z,22.07
2019-01-06T17:59:44.318Z,17.30
2019-01-06T18:02:43.218Z,23.43
2019-01-06T18:05:34.857Z,27.17
2019-01-06T18:08:35.330Z,19.20
2019-01-06T18:11:19.032Z,24.37
2019-01-06T18:14:08.106Z,21.80
2019-01-06T18:16:54.995Z,28.73
2019-01-06T18:19:53.154Z,21.50
2019-01-06T18:22:56.316Z,19.53
2019-01-06T18:25:44.145Z,19.77
2019-01-06T18:28:38.224Z,25.17
2019-01-06T18:31:40.295Z,17.67
2019-01-06T18:34:20.010Z,17.20
2019-01-06T18:37:08.033Z,20.37
2019-01-06T18:39:56.028Z,25.17
2019-01-06T18:42:50.352Z,19.70
2019-01-06T18:45:36.995Z,21.87
2019-01-06T18:48:31.352Z,19.80
2019-01-06T18:51:18.214Z,17.23
2019-01-06T18:54:08.318Z,21.00
2019-01-06T18:56:55.186Z,19.47
2019-01-06T18:59:41.806Z,18.33
2019-01-06T19:02:42.079Z,20.97
2019-01-06T19:05:30.215Z,22.83
2019-01-06T19:08:25.659Z,24.63
2019-01-06T19:11:11.069Z,25.07
2019-01-06T19:14:02.111Z,18.17
2019-01-06T19:16:43.003Z,16.90
2019-01-06T19:19:46.341Z,20.87
2019-01-06T19:22:43.480Z,19.67
2019-01-06T19:25:29.899Z,19.63
2019-01-06T19:28:32.936Z,20.27
2019-01-06T19:31:21.881Z,19.63
2019-01-06T19:37:04.648Z,20.57
2019-01-06T19:39:51.427Z,25.17
2019-01-06T19:42:47.815Z,30.77
2019-01-06T19:45:39.352Z,28.50
2019-01-06T19:48:36.122Z,27.07
2019-01-06T19:51:30.669Z,24.73
2019-01-06T19:54:28.456Z,19.60
2019-01-06T19:57:15.396Z,19.30
2019-01-06T20:00:03.565Z,26.67
2019-01-06T20:02:52.553Z,23.30
2019-01-06T20:05:49.814Z,19.83
2019-01-06T20:08:48.492Z,25.00
2019-01-06T20:11:37.412Z,24.50
2019-01-06T20:14:23.146Z,28.97
2019-01-06T20:17:14.603Z,19.80
2019-01-06T20:19:59.192Z,21.83
2019-01-06T20:22:53.463Z,24.13
2019-01-06T20:25:40.342Z,22.77
2019-01-06T20:28:27.073Z,22.37
2019-01-06T20:31:15.447Z,21.97
2019-01-06T20:34:02.420Z,20.33
2019-01-06T20:37:05.294Z,25.53
2019-01-06T20:39:51.604Z,30.07
2019-01-06T20:42:38.136Z,16.70
2019-01-06T20:45:26.319Z,24.10
2019-01-06T20:48:13.472Z,22.20
2019-01-06T20:51:02.619Z,21.30
2019-01-06T20:53:49.017Z,25.67
2019-01-06T20:56:37.138Z,18.70
2019-01-06T20:59:32.782Z,23.33
2019-01-06T21:02:20.485Z,19.70
2019-01-06T21:05:08.061Z,18.63
2019-01-06T21:07:56.513Z,21.93
2019-01-06T21:10:52.482Z,18.87
2019-01-06T21:13:39.097Z,23.03
2019-01-06T21:16:37.325Z,25.57
2019-01-06T21:19:34.173Z,18.63
2019-01-06T21:22:22.333Z,20.10
2019-01-06T21:25:14.414Z,18.20
2019-01-06T21:27:54.804Z,23.90
2019-01-06T21:30:44.205Z,16.07
2019-01-06T21:33:35.445Z,22.07
2019-01-06T21:36:32.195Z,22.50
2019-01-06T21:39:15.887Z,19.27
2019-01-06T21:42:16.105Z,25.60
2019-01-06T21:45:02.785Z,19.57
2019-01-06T21:47:51.657Z,19.67
2019-01-06T21:50:39.614Z,23.40
2019-01-06T21:53:33.035Z,21.67
2019-01-06T21:56:14.368Z,25.93
2019-01-06T21:59:00.950Z,24.83
2019-01-06T22:01:49.977Z,21.73
2019-01-06T22:04:55.926Z,33.87
2019-01-06T22:07:51.390Z,23.17
2019-01-06T22:10:36.496Z,18.33
2019-01-06T22:13:23.297Z,17.97
2019-01-06T22:16:17.185Z,22.03
2019-01-06T22:19:03.149Z,20.13
2019-01-06T22:21:51.122Z,21.50
2019-01-06T22:24:37.663Z,26.07
2019-01-06T22:27:26.068Z,14.87
2019-01-06T22:30:18.226Z,18.17
2019-01-06T22:33:08.827Z,21.60
2019-01-06T22:35:51.689Z,24.10
2019-01-06T22:38:34.658Z,21.10
2019-01-06T22:41:19.216Z,25.13
2019-01-06T22:44:05.286Z,16.53
2019-01-06T22:46:53.418Z,24.10
2019-01-06T22:49:42.656Z,20.07
2019-01-06T22:52:36.943Z,14.73
2019-01-06T22:55:39.275Z,23.67
2019-01-06T22:58:28.470Z,24.33
2019-01-06T23:01:32.998Z,22.60
2019-01-06T23:04:20.983Z,16.03
2019-01-06T23:07:07.386Z,22.33
2019-01-06T23:09:55.327Z,22.00
2019-01-06T23:12:43.101Z,17.43
2019-01-06T23:15:46.853Z,23.73
2019-01-06T23:18:49.311Z,22.53
2019-01-06T23:21:46.195Z,26.83
2019-01-06T23:24:43.919Z,20.80
2019-01-06T23:27:39.602Z,22.40
2019-01-06T23:30:33.137Z,24.53
2019-01-06T23:33:21.663Z,25.20
2019-01-06T23:36:12.893Z,23.10
2019-01-06T23:38:59.346Z,22.23
2019-01-06T23:41:47.287Z,27.60
2019-01-06T23:44:40.356Z,22.03
2019-01-06T23:47:30.277Z,20.80
2019-01-06T23:50:16.113Z,19.20
2019-01-06T23:53:02.990Z,29.73
2019-01-06T23:55:50.379Z,16.23
2019-01-06T23:58:37.409Z,22.37
